Gunnar Thorson — OUDU — position and weather

sailwx.info

Track history (hours):
 
Tides and Currents Weather Stations Pressure Air Temp Water Temp Dewpoint Dewpoint Depression Visibility Wind Speed Wind Dir Waves Ship Positions

Oceanographic research ship Gunnar Thorson (Denmark)

Detailed information on ship capabilities available from University of Delaware's Ocean Information Center.

Last reported at 2017-Feb-18 23:32 UTC. Time now 2017-Feb-26 03:18 UTC.
Position N 57°26' E 010°32'.

Length 48 m; draft 4.2 m.

Type: Military. MMSI: 219263000.

Date/timePositionNaut miles runAvg speedWind from/ knotsBaromVisibWave heightAir tempDewpointWater temp
2017-Feb-18 23:32N 57°26' E 010°32'0 0.0
2017-Feb-18 09:11N 57°26' E 010°32'0 0.0
2017-Feb-18 08:32N 57°26' E 010°32'0 0.0
2017-Feb-18 06:14N 57°26' E 010°32'4 5.8
2017-Feb-18 05:33N 57°23' E 010°37'19 9.5
2017-Feb-18 03:33N 57°04' E 010°43'34 7.8
2017-Feb-17 23:11N 56°31' E 010°59'5 8.4
2017-Feb-17 22:33N 56°26' E 010°60'7 7.3
2017-Feb-17 21:33N 56°19' E 010°58'7 7.6
2017-Feb-17 20:33N 56°13' E 010°49'7 7.1
2017-Feb-17 19:33N 56°07' E 010°45'7 7.2
2017-Feb-17 18:33N 56°03' E 010°34'8 8.1
2017-Feb-17 17:33N 55°55' E 010°29'2 0.1
2017-Feb-16 10:32N 55°53' E 010°31'16 0.6
2017-Feb-15 08:27N 55°37' E 010°31'2 2.3
2017-Feb-15 07:29N 55°35' E 010°30'0 0.1
2017-Feb-15 01:27N 55°35' E 010°30'0 0.0
2017-Feb-15 00:31N 55°35' E 010°30'0 0.0
2017-Feb-14 23:18N 55°35' E 010°30'0 0.0
2017-Feb-14 22:30N 55°35' E 010°30'0 0.0
2017-Feb-14 21:33N 55°35' E 010°30'0 0.0
2017-Feb-14 20:30N 55°35' E 010°30'0 0.0
2017-Feb-14 18:33N 55°35' E 010°30'0 0.0
2017-Feb-14 16:30N 55°35' E 010°30'2 2.6
2017-Feb-14 15:33N 55°37' E 010°33'1 0.9
2017-Feb-14 14:33N 55°36' E 010°33'1 0.5
2017-Feb-14 13:33N 55°36' E 010°33'1 0.8
2017-Feb-14 12:33N 55°37' E 010°31'1 1.0
2017-Feb-14 11:33N 55°37' E 010°32'1 1.1
2017-Feb-14 10:33N 55°37' E 010°34'1 0.5
2017-Feb-14 09:33N 55°37' E 010°35'7 6.9
2017-Feb-14 08:33N 55°44' E 010°33'6 5.7
2017-Feb-14 07:33N 55°44' E 010°23'0 0.2
2017-Feb-14 06:29N 55°44' E 010°23'0 0.0
2017-Feb-14 04:32N 55°44' E 010°23'0 0.0
2017-Feb-14 03:32N 55°44' E 010°23'0 0.0
2017-Feb-14 02:29N 55°44' E 010°23'0 0.0
2017-Feb-13 16:21N 55°44' E 010°23'6 6.8
2017-Feb-13 15:25N 55°43' E 010°12'3 2.0
2017-Feb-13 14:06N 55°43' E 010°16'610.5
2017-Feb-13 13:33N 55°44' E 010°27'7 6.5
2017-Feb-13 12:24N 55°37' E 010°29'10 7.7
2017-Feb-13 11:04N 55°47' E 010°25'9 4.8
2017-Feb-13 09:18N 55°39' E 010°18'6 6.6
2017-Feb-13 08:28N 55°44' E 010°23'0 0.5
2017-Feb-13 07:26N 55°44' E 010°23'14 0.3
2017-Feb-11 09:31N 55°58' E 010°30'1010.3
2017-Feb-11 08:34N 56°05' E 010°42'10 9.7
2017-Feb-11 07:34N 56°14' E 010°50'28 9.1
2017-Feb-11 04:26N 56°42' E 010°59'17 9.0
2017-Feb-11 02:32N 56°57' E 010°44'13 9.6
2017-Feb-11 01:08N 57°11' E 010°43'5 8.8
2017-Feb-11 00:33N 57°16' E 010°41'7 7.5
2017-Feb-10 23:34N 57°23' E 010°37'3 0.1
2017-Feb-09 05:33N 57°26' E 010°36'9 9.3
2017-Feb-09 04:33N 57°35' E 010°41'10 9.6
2017-Feb-09 03:33N 57°44' E 010°44'7 7.0
2017-Feb-09 02:33N 57°45' E 010°31'  
Track history (hours):
 
Tides and Currents Weather Stations Pressure Air Temp Water Temp Dewpoint Dewpoint Depression Visibility Wind Speed Wind Dir Waves Ship Positions

Oceanographic research ship Gunnar Thorson (Denmark)

Detailed information on ship capabilities available from University of Delaware's Ocean Information Center.

Last reported at 2017-Feb-18 23:32 UTC. Time now 2017-Feb-26 03:18 UTC.
Position N 57°26' E 010°32'.

Length 48 m; draft 4.2 m.

Type: Military. MMSI: 219263000.

Date/timePositionNaut miles runAvg speedWind from/ knotsBaromVisibWave heightAir tempDewpointWater temp
2017-Feb-18 23:32N 57°26' E 010°32'0 0.0
2017-Feb-18 09:11N 57°26' E 010°32'0 0.0
2017-Feb-18 08:32N 57°26' E 010°32'0 0.0
2017-Feb-18 06:14N 57°26' E 010°32'4 5.8
2017-Feb-18 05:33N 57°23' E 010°37'19 9.5
2017-Feb-18 03:33N 57°04' E 010°43'34 7.8
2017-Feb-17 23:11N 56°31' E 010°59'5 8.4
2017-Feb-17 22:33N 56°26' E 010°60'7 7.3
2017-Feb-17 21:33N 56°19' E 010°58'7 7.6
2017-Feb-17 20:33N 56°13' E 010°49'7 7.1
2017-Feb-17 19:33N 56°07' E 010°45'7 7.2
2017-Feb-17 18:33N 56°03' E 010°34'8 8.1
2017-Feb-17 17:33N 55°55' E 010°29'2 0.1
2017-Feb-16 10:32N 55°53' E 010°31'16 0.6
2017-Feb-15 08:27N 55°37' E 010°31'2 2.3
2017-Feb-15 07:29N 55°35' E 010°30'0 0.1
2017-Feb-15 01:27N 55°35' E 010°30'0 0.0
2017-Feb-15 00:31N 55°35' E 010°30'0 0.0
2017-Feb-14 23:18N 55°35' E 010°30'0 0.0
2017-Feb-14 22:30N 55°35' E 010°30'0 0.0
2017-Feb-14 21:33N 55°35' E 010°30'0 0.0
2017-Feb-14 20:30N 55°35' E 010°30'0 0.0
2017-Feb-14 18:33N 55°35' E 010°30'0 0.0
2017-Feb-14 16:30N 55°35' E 010°30'2 2.6
2017-Feb-14 15:33N 55°37' E 010°33'1 0.9
2017-Feb-14 14:33N 55°36' E 010°33'1 0.5
2017-Feb-14 13:33N 55°36' E 010°33'1 0.8
2017-Feb-14 12:33N 55°37' E 010°31'1 1.0
2017-Feb-14 11:33N 55°37' E 010°32'1 1.1
2017-Feb-14 10:33N 55°37' E 010°34'1 0.5
2017-Feb-14 09:33N 55°37' E 010°35'7 6.9
2017-Feb-14 08:33N 55°44' E 010°33'6 5.7
2017-Feb-14 07:33N 55°44' E 010°23'0 0.2
2017-Feb-14 06:29N 55°44' E 010°23'0 0.0
2017-Feb-14 04:32N 55°44' E 010°23'0 0.0
2017-Feb-14 03:32N 55°44' E 010°23'0 0.0
2017-Feb-14 02:29N 55°44' E 010°23'0 0.0
2017-Feb-13 16:21N 55°44' E 010°23'6 6.8
2017-Feb-13 15:25N 55°43' E 010°12'3 2.0
2017-Feb-13 14:06N 55°43' E 010°16'610.5
2017-Feb-13 13:33N 55°44' E 010°27'7 6.5
2017-Feb-13 12:24N 55°37' E 010°29'10 7.7
2017-Feb-13 11:04N 55°47' E 010°25'9 4.8
2017-Feb-13 09:18N 55°39' E 010°18'6 6.6
2017-Feb-13 08:28N 55°44' E 010°23'0 0.5
2017-Feb-13 07:26N 55°44' E 010°23'14 0.3
2017-Feb-11 09:31N 55°58' E 010°30'1010.3
2017-Feb-11 08:34N 56°05' E 010°42'10 9.7
2017-Feb-11 07:34N 56°14' E 010°50'28 9.1
2017-Feb-11 04:26N 56°42' E 010°59'17 9.0
2017-Feb-11 02:32N 56°57' E 010°44'13 9.6
2017-Feb-11 01:08N 57°11' E 010°43'5 8.8
2017-Feb-11 00:33N 57°16' E 010°41'7 7.5
2017-Feb-10 23:34N 57°23' E 010°37'3 0.1
2017-Feb-09 05:33N 57°26' E 010°36'9 9.3
2017-Feb-09 04:33N 57°35' E 010°41'10 9.6
2017-Feb-09 03:33N 57°44' E 010°44'7 7.0
2017-Feb-09 02:33N 57°45' E 010°31'  

Dump ship's entire track history